createdAt,value
2023-02-15T00:03:18.024Z,58.13
2023-02-15T00:08:20.865Z,56.13
2023-02-15T00:13:23.646Z,62.23
2023-02-15T00:18:26.517Z,52.88
2023-02-15T00:23:29.374Z,58.33
2023-02-15T00:28:32.638Z,56.75
2023-02-15T00:33:36.420Z,57.53
2023-02-15T00:38:39.432Z,46.67
2023-02-15T00:43:42.026Z,39.78
2023-02-15T00:48:44.701Z,34.42
2023-02-15T00:53:47.483Z,28.75
2023-02-15T00:58:50.302Z,22.83
2023-02-15T01:03:53.205Z,22.47
2023-02-15T01:08:56.024Z,21.15
2023-02-15T01:13:59.737Z,24.35
2023-02-15T01:19:03.908Z,21.83
2023-02-15T01:24:16.330Z,22.15
2023-02-15T01:29:19.030Z,20.30
2023-02-15T01:34:21.962Z,19.63
2023-02-15T01:39:24.642Z,22.80
2023-02-15T01:44:58.953Z,19.42
2023-02-15T01:50:22.870Z,24.20
2023-02-15T01:55:30.336Z,27.87
2023-02-15T02:00:35.180Z,15.10
2023-02-15T02:05:39.230Z,18.27
2023-02-15T02:10:41.993Z,17.75
2023-02-15T02:16:10.420Z,21.73
2023-02-15T02:21:49.200Z,21.07
2023-02-15T02:27:15.286Z,23.02
2023-02-15T02:32:39.488Z,20.42
2023-02-15T02:38:08.431Z,26.25
2023-02-15T02:43:39.707Z,14.05
2023-02-15T02:48:42.533Z,21.27
2023-02-15T02:53:45.167Z,24.98
2023-02-15T02:59:20.010Z,17.77
2023-02-15T03:04:29.660Z,22.25
2023-02-15T03:09:43.422Z,20.35
2023-02-15T03:14:53.613Z,23.60
2023-02-15T03:20:01.601Z,22.77
2023-02-15T03:25:13.861Z,22.05
2023-02-15T03:30:22.252Z,14.73
2023-02-15T03:35:30.881Z,24.27
2023-02-15T03:40:58.870Z,20.47
2023-02-15T03:46:14.073Z,20.92
2023-02-15T03:51:36.142Z,16.13
2023-02-15T03:56:42.253Z,20.17
2023-02-15T04:02:01.253Z,24.92
2023-02-15T04:07:06.663Z,21.73
2023-02-15T04:12:09.527Z,20.95
2023-02-15T04:17:12.182Z,25.20
2023-02-15T04:22:33.223Z,23.85
2023-02-15T04:27:36.433Z,24.38
2023-02-15T04:32:39.735Z,25.13
2023-02-15T04:37:43.250Z,24.65
2023-02-15T04:42:45.936Z,27.02
2023-02-15T04:47:48.560Z,22.25
2023-02-15T04:52:51.272Z,17.35
2023-02-15T04:57:54.011Z,17.03
2023-02-15T05:02:56.722Z,18.33
2023-02-15T05:07:59.996Z,23.20
2023-02-15T05:13:02.660Z,18.88
2023-02-15T05:18:07.081Z,16.80
2023-02-15T05:23:09.790Z,11.63
2023-02-15T05:28:22.220Z,5.20
2023-02-15T05:33:24.921Z,10.52
2023-02-15T05:38:27.762Z,20.83
2023-02-15T05:43:30.867Z,18.65
2023-02-15T05:48:34.588Z,10.97
2023-02-15T05:53:39.387Z,14.25
2023-02-15T05:58:43.230Z,17.35
2023-02-15T06:03:47.343Z,8.20
2023-02-15T06:08:50.274Z,15.80
2023-02-15T06:13:52.940Z,16.00
2023-02-15T06:18:55.729Z,11.80
2023-02-15T06:23:58.871Z,10.05
2023-02-15T06:29:01.932Z,10.50
2023-02-15T06:34:04.728Z,13.93
2023-02-15T06:39:07.751Z,6.80
2023-02-15T06:44:10.789Z,16.45
2023-02-15T06:49:13.543Z,8.60
2023-02-15T06:54:16.429Z,13.52
2023-02-15T06:59:19.208Z,9.77
2023-02-15T07:04:22.007Z,12.70
2023-02-15T07:09:24.786Z,14.63
2023-02-15T07:14:28.969Z,20.00
2023-02-15T07:19:31.942Z,18.00
2023-02-15T07:24:34.641Z,14.07
2023-02-15T07:29:37.460Z,15.53
2023-02-15T07:34:41.693Z,19.10
2023-02-15T07:39:44.327Z,18.88
2023-02-15T07:44:47.520Z,24.13
2023-02-15T07:49:50.620Z,13.68
2023-02-15T07:54:53.580Z,10.60
2023-02-15T07:59:56.301Z,18.58
2023-02-15T08:04:59.134Z,18.48
2023-02-15T08:10:01.945Z,18.13
2023-02-15T08:15:05.844Z,14.30
2023-02-15T08:20:09.792Z,21.37
2023-02-15T08:25:12.512Z,20.17
2023-02-15T08:30:15.836Z,19.90
2023-02-15T08:35:18.694Z,17.50
2023-02-15T08:40:21.965Z,17.85
2023-02-15T08:45:26.798Z,10.17
2023-02-15T08:50:29.558Z,17.33
2023-02-15T08:55:32.526Z,11.80
2023-02-15T09:00:35.410Z,15.77
2023-02-15T09:05:38.267Z,21.60
2023-02-15T09:10:41.071Z,23.07
2023-02-15T09:15:43.780Z,17.60
2023-02-15T09:20:46.539Z,18.15
2023-02-15T09:25:49.354Z,18.70
2023-02-15T09:30:52.662Z,20.48
2023-02-15T09:35:55.792Z,21.07
2023-02-15T09:41:18.154Z,15.73
2023-02-15T09:46:42.333Z,16.77
2023-02-15T09:52:05.373Z,17.92
2023-02-15T09:57:35.885Z,19.73
2023-02-15T10:02:53.686Z,19.90
2023-02-15T10:08:14.996Z,19.65
2023-02-15T10:13:38.215Z,17.95
2023-02-15T10:18:53.770Z,18.88
2023-02-15T10:24:15.215Z,18.55
2023-02-15T10:29:37.549Z,17.87
2023-02-15T10:34:49.317Z,17.83
2023-02-15T10:40:14.088Z,18.13
2023-02-15T10:45:45.811Z,19.42
2023-02-15T10:50:54.433Z,16.25
2023-02-15T10:56:28.108Z,17.87
2023-02-15T11:01:52.815Z,18.77
2023-02-15T11:07:00.235Z,16.58
2023-02-15T11:12:03.683Z,19.63
2023-02-15T11:17:24.969Z,18.80
2023-02-15T11:22:28.119Z,17.77
2023-02-15T11:27:36.518Z,20.40
2023-02-15T11:32:48.424Z,19.05
2023-02-15T11:38:07.412Z,19.27
2023-02-15T11:43:24.590Z,18.73
2023-02-15T11:48:27.435Z,17.20
2023-02-15T11:53:34.987Z,20.98
2023-02-15T11:58:44.085Z,17.45
2023-02-15T12:04:03.358Z,18.77
2023-02-15T12:09:09.187Z,19.35
2023-02-15T12:14:17.132Z,19.30
2023-02-15T12:19:29.547Z,18.17
2023-02-15T12:24:45.654Z,23.27
2023-02-15T12:29:55.061Z,26.52
2023-02-15T12:35:09.488Z,22.15
2023-02-15T12:40:41.472Z,23.27
2023-02-15T12:45:44.994Z,19.25
2023-02-15T12:50:54.728Z,24.00
2023-02-15T12:56:07.306Z,24.77
2023-02-15T13:01:17.746Z,23.75
2023-02-15T13:06:22.016Z,22.57
2023-02-15T13:11:35.416Z,25.58
2023-02-15T13:16:41.012Z,23.77
2023-02-15T13:21:49.035Z,24.02
2023-02-15T13:26:55.953Z,25.65
2023-02-15T13:32:18.712Z,26.30
2023-02-15T13:37:27.531Z,28.48
2023-02-15T13:42:34.402Z,26.88
2023-02-15T13:47:55.922Z,25.30
2023-02-15T13:53:23.154Z,24.75
2023-02-15T13:58:41.152Z,25.60
2023-02-15T14:04:28.184Z,27.33
2023-02-15T14:09:53.211Z,26.45
2023-02-15T14:15:23.887Z,27.98
2023-02-15T14:20:32.801Z,27.48
2023-02-15T14:25:42.852Z,30.83
2023-02-15T14:30:51.279Z,27.17
2023-02-15T14:35:55.484Z,28.02
2023-02-15T14:41:16.393Z,25.45
2023-02-15T14:46:37.647Z,27.48
2023-02-15T14:51:52.048Z,25.20
2023-02-15T14:57:04.214Z,30.38
2023-02-15T15:02:10.025Z,25.55
2023-02-15T15:07:27.999Z,27.45
2023-02-15T15:12:33.775Z,25.33
2023-02-15T15:17:39.266Z,31.13
2023-02-15T15:22:44.249Z,30.40
2023-02-15T15:27:54.632Z,26.38
2023-02-15T15:32:57.890Z,29.35
2023-02-15T15:38:15.946Z,27.35
2023-02-15T15:43:35.192Z,31.07
2023-02-15T15:48:40.155Z,30.63
2023-02-15T15:53:48.369Z,28.55
2023-02-15T15:58:55.590Z,32.30
2023-02-15T16:04:00.587Z,24.92
2023-02-15T16:09:25.059Z,28.47
2023-02-15T16:14:34.028Z,27.27
2023-02-15T16:19:43.984Z,29.40
2023-02-15T16:25:06.736Z,39.58
2023-02-15T16:30:19.044Z,48.97
2023-02-15T16:35:23.805Z,62.30
2023-02-15T16:40:28.753Z,38.90
2023-02-15T16:45:33.606Z,39.67
2023-02-15T16:50:39.175Z,35.47
2023-02-15T16:55:43.790Z,32.20
2023-02-15T17:00:47.025Z,42.60
2023-02-15T17:05:53.651Z,38.08
2023-02-15T17:11:20.919Z,36.13
2023-02-15T17:16:34.391Z,46.80
2023-02-15T17:21:43.148Z,34.85
2023-02-15T17:26:52.266Z,27.37
2023-02-15T17:31:58.808Z,37.45
2023-02-15T17:37:03.527Z,33.40
2023-02-15T17:42:06.323Z,32.40
2023-02-15T17:47:16.315Z,32.58
2023-02-15T17:52:19.493Z,33.73
2023-02-15T17:57:22.383Z,37.42
2023-02-15T18:02:43.963Z,44.47
2023-02-15T18:08:05.320Z,39.33
2023-02-15T18:13:08.312Z,38.70
2023-02-15T18:18:13.817Z,37.57
2023-02-15T18:23:16.898Z,37.55
2023-02-15T18:28:19.756Z,44.42
2023-02-15T18:33:36.219Z,46.58
2023-02-15T18:38:39.215Z,37.83
2023-02-15T18:43:42.174Z,41.37
2023-02-15T18:48:46.776Z,47.28
2023-02-15T18:53:52.599Z,44.08
2023-02-15T18:58:55.291Z,44.63
2023-02-15T19:03:58.126Z,48.63
2023-02-15T19:09:01.118Z,56.93
2023-02-15T19:14:04.047Z,57.42
2023-02-15T19:19:07.499Z,39.60
2023-02-15T19:24:20.437Z,46.60
2023-02-15T19:29:30.833Z,52.17
2023-02-15T19:34:33.729Z,42.17
2023-02-15T19:39:40.604Z,52.08
2023-02-15T19:44:44.099Z,48.10
2023-02-15T19:49:46.890Z,46.78
2023-02-15T19:54:50.329Z,45.40
2023-02-15T19:59:53.042Z,45.87
2023-02-15T20:04:55.982Z,56.88
2023-02-15T20:09:58.823Z,52.28
2023-02-15T20:15:01.590Z,52.50
2023-02-15T20:20:04.618Z,52.15
2023-02-15T20:25:12.165Z,54.00
2023-02-15T20:30:26.415Z,56.95
2023-02-15T20:35:29.546Z,53.97
2023-02-15T20:40:35.423Z,56.00
2023-02-15T20:45:39.233Z,58.65
2023-02-15T20:50:41.908Z,54.80
2023-02-15T20:55:44.748Z,45.90
2023-02-15T21:00:47.777Z,58.25
2023-02-15T21:05:51.010Z,58.08
2023-02-15T21:10:54.395Z,51.58
2023-02-15T21:15:58.689Z,58.47
2023-02-15T21:21:04.142Z,49.63
2023-02-15T21:26:14.231Z,54.38
2023-02-15T21:31:23.055Z,52.08
2023-02-15T21:36:27.062Z,49.95
2023-02-15T21:41:48.180Z,52.47
2023-02-15T21:47:10.538Z,61.25
2023-02-15T21:52:14.972Z,60.40
2023-02-15T21:57:19.476Z,55.42
2023-02-15T22:02:29.402Z,52.67
2023-02-15T22:07:32.292Z,51.63
2023-02-15T22:12:35.610Z,61.88
2023-02-15T22:17:38.447Z,59.83
2023-02-15T22:22:41.288Z,61.53
2023-02-15T22:27:45.199Z,61.50
2023-02-15T22:32:48.173Z,60.57
2023-02-15T22:37:51.097Z,57.22
2023-02-15T22:42:55.493Z,54.35
2023-02-15T22:48:00.544Z,53.17
2023-02-15T22:53:03.974Z,53.22
2023-02-15T22:58:07.328Z,74.43
2023-02-15T23:03:25.264Z,64.40
2023-02-15T23:08:28.118Z,65.93
2023-02-15T23:13:33.264Z,59.70
2023-02-15T23:18:43.851Z,80.90
2023-02-15T23:23:49.805Z,71.20
2023-02-15T23:28:53.181Z,78.22
2023-02-15T23:33:56.688Z,58.42
2023-02-15T23:39:25.182Z,57.47
2023-02-15T23:44:28.504Z,70.03
2023-02-15T23:49:31.227Z,60.47
2023-02-15T23:54:33.898Z,62.22
2023-02-15T23:59:37.332Z,54.60
